Time;durP1;ratioP1;P1;durP2;ratioP2;P2;SDS_P1;SDS_P2;PMS_P1;PMS_P2;Temp;Humidity;BMP_temperature;BMP_pressure;BME280_temperature;BME280_humidity;BME280_pressure;Samples;Min_cycle;Max_cycle;Signal;HPM_P1;HPM_P2
2021/03/02 00:01:11;;;;;;;42.67;17.60;;;;;;;-1.08;94.57;103628.22;5048650;28;20041;-80
2021/03/02 00:03:37;;;;;;;49.40;19.70;;;;;;;-1.13;94.36;103623.94;5021829;28;20795;-79
2021/03/02 00:06:04;;;;;;;54.25;19.52;;;;;;;-1.06;94.07;103629.09;5048712;28;20079;-78
2021/03/02 00:08:30;;;;;;;64.65;22.98;;;;;;;-1.11;94.38;103627.38;5048812;28;20399;-77
2021/03/02 00:11:00;;;;;;;62.05;19.95;;;;;;;-1.09;94.75;103629.09;5023225;28;20039;-78
2021/03/02 00:13:25;;;;;;;55.33;21.42;;;;;;;-1.13;94.50;103629.97;5049326;28;20308;-80
2021/03/02 00:15:51;;;;;;;70.60;21.95;;;;;;;-1.21;94.70;103617.06;5022649;28;20489;-79
2021/03/02 00:18:24;;;;;;;75.40;23.42;;;;;;;-1.13;94.78;103621.38;5024024;28;20115;-79
2021/03/02 00:20:53;;;;;;;;;;;;;;;-1.16;95.17;103629.97;5017081;28;20044;-78
2021/03/02 00:23:26;;;;;;;82.25;24.67;;;;;;;-1.14;95.49;103629.97;5026722;28;20389;-78
2021/03/02 00:26:02;;;;;;;123.38;28.38;;;;;;;-1.15;95.42;103626.50;5042034;28;20043;-80
2021/03/02 00:28:28;;;;;;;110.80;28.55;;;;;;;-1.18;95.61;103623.94;5017767;28;20029;-79
2021/03/02 00:30:54;;;;;;;84.15;26.48;;;;;;;-1.23;95.55;103618.78;5027328;28;20040;-78
2021/03/02 00:33:24;;;;;;;104.10;29.77;;;;;;;-1.16;95.67;103629.09;5029854;28;20051;-80
2021/03/02 00:35:50;;;;;;;116.40;32.42;;;;;;;-1.16;96.30;103617.09;5046778;28;20822;-78
2021/03/02 00:38:16;;;;;;;77.72;24.08;;;;;;;-1.16;96.52;103616.22;5029376;28;20121;-80
2021/03/02 00:40:42;;;;;;;94.60;28.73;;;;;;;-1.11;96.88;103619.63;5048205;28;20041;-79
2021/03/02 00:43:08;;;;;;;86.03;28.02;;;;;;;-1.09;97.10;103625.66;5046313;28;20071;-79
2021/03/02 00:45:34;;;;;;;104.13;30.75;;;;;;;-1.08;96.90;103619.66;5029140;28;20041;-77
2021/03/02 00:48:00;;;;;;;98.47;28.42;;;;;;;-1.14;96.79;103617.09;5027188;28;20037;-78
2021/03/02 00:50:27;;;;;;;85.18;26.17;;;;;;;-1.18;96.91;103613.66;5022488;28;20040;-78
2021/03/02 00:52:55;;;;;;;98.53;27.08;;;;;;;-1.20;97.04;103602.50;5031522;28;20047;-78
2021/03/02 00:55:23;;;;;;;113.22;30.58;;;;;;;-1.21;96.83;103605.91;5062981;28;20032;-79
2021/03/02 00:57:49;;;;;;;98.78;28.65;;;;;;;-1.21;97.16;103605.91;5030253;28;20120;-78
2021/03/02 01:00:19;;;;;;;112.05;29.65;;;;;;;-1.20;97.13;103597.34;5050886;28;20131;-79
2021/03/02 01:02:45;;;;;;;123.30;30.42;;;;;;;-1.16;97.10;103608.50;5047815;28;20021;-78
2021/03/02 01:05:11;;;;;;;100.40;29.70;;;;;;;-1.22;97.40;103596.47;5057374;28;20033;-77
2021/03/02 01:07:41;;;;;;;121.07;30.75;;;;;;;-1.21;96.85;103604.19;5019510;28;20045;-79
2021/03/02 01:10:09;;;;;;;118.53;32.00;;;;;;;-1.16;96.89;103605.94;5044300;28;20080;-77
2021/03/02 01:12:36;;;;;;;116.80;31.98;;;;;;;-1.23;96.94;103598.19;5031609;28;20043;-76
2021/03/02 01:15:05;;;;;;;100.40;32.33;;;;;;;-1.25;96.92;103599.91;5050417;28;20040;-78
2021/03/02 01:17:30;;;;;;;95.18;29.60;;;;;;;-1.28;96.93;103594.75;5041363;28;20032;-79
2021/03/02 01:19:56;;;;;;;101.40;29.52;;;;;;;-1.23;97.22;103595.59;5047025;28;20411;-79
2021/03/02 01:22:21;;;;;;;73.32;25.05;;;;;;;-1.22;97.33;103587.03;5059660;28;20503;-77
2021/03/02 01:24:47;;;;;;;87.35;27.75;;;;;;;-1.16;97.39;103596.47;5066198;28;20048;-79
2021/03/02 01:27:13;;;;;;;75.72;27.10;;;;;;;-1.12;97.83;103589.59;5041600;28;20111;-78
2021/03/02 01:29:38;;;;;;;70.28;25.52;;;;;;;-1.14;97.86;103584.44;5024637;28;20028;-80
2021/03/02 01:32:04;;;;;;;73.80;26.67;;;;;;;-1.06;97.50;103592.16;5051227;28;20127;-79
2021/03/02 01:34:29;;;;;;;68.13;26.75;;;;;;;-1.09;98.02;103576.69;5048919;28;20037;-79
2021/03/02 01:36:55;;;;;;;75.13;24.67;;;;;;;-1.13;98.18;103582.72;5058872;28;20152;-79
2021/03/02 01:39:21;;;;;;;61.97;23.92;;;;;;;-1.10;98.09;103578.44;5051041;28;20024;-80
2021/03/02 01:41:54;;;;;;;61.30;25.17;;;;;;;-1.11;98.07;103581.00;5029986;28;20411;-77
2021/03/02 01:44:20;;;;;;;52.53;24.80;;;;;;;-1.14;98.25;103576.72;5046607;28;20032;-79
2021/03/02 01:46:48;;;;;;;55.47;24.35;;;;;;;-1.21;98.15;103565.56;5065034;28;20103;-79
2021/03/02 01:49:14;;;;;;;49.30;24.30;;;;;;;-1.19;97.92;103586.16;5049056;28;20090;-79
2021/03/02 01:51:39;;;;;;;59.58;26.05;;;;;;;-1.20;98.46;103579.31;5065655;28;20056;-80
2021/03/02 01:54:05;;;;;;;60.53;25.80;;;;;;;-1.24;98.37;103580.19;5065710;28;20154;-77
2021/03/02 01:56:31;;;;;;;55.35;25.58;;;;;;;-1.29;98.30;103572.44;5008977;28;20037;-79
2021/03/02 01:58:56;;;;;;;58.63;23.98;;;;;;;-1.29;98.44;103585.31;5031233;28;20040;-79
2021/03/02 02:01:22;;;;;;;47.55;23.30;;;;;;;-1.27;98.50;103590.47;5047076;28;20107;-80
2021/03/02 02:03:57;;;;;;;48.67;22.80;;;;;;;-1.29;98.34;103590.47;5047475;28;20037;-79
2021/03/02 02:06:25;;;;;;;62.25;23.90;;;;;;;-1.27;98.28;103591.31;5042382;28;20067;-77
2021/03/02 02:09:26;;;;;;;59.10;21.90;;;;;;;-1.43;98.21;103584.44;5048236;28;20503;-78
2021/03/02 02:12:07;;;;;;;44.78;21.67;;;;;;;-1.47;98.02;103588.75;5065374;28;20452;-77
2021/03/02 02:14:36;;;;;;;46.55;20.58;;;;;;;-1.45;98.21;103592.19;5043149;28;20056;-78
2021/03/02 02:17:07;;;;;;;52.33;20.38;;;;;;;-1.55;98.10;103579.28;5032137;28;20033;-78
2021/03/02 02:19:39;;;;;;;35.10;18.70;;;;;;;-1.49;98.14;103585.28;5046915;28;20036;-78
2021/03/02 02:22:20;;;;;;;36.87;18.97;;;;;;;-1.46;98.15;103590.44;5048809;28;20415;-78
2021/03/02 02:25:12;;;;;;;48.13;20.00;;;;;;;-1.40;98.84;103590.44;5025244;28;20104;-78
2021/03/02 02:27:38;;;;;;;86.53;20.77;;;;;;;-1.50;98.48;103577.59;5048351;28;20029;-80
2021/03/02 02:30:05;;;;;;;37.95;20.65;;;;;;;-1.41;98.85;103588.75;5047885;28;20037;-79
2021/03/02 02:32:32;;;;;;;47.83;19.30;;;;;;;-1.34;98.97;103583.59;5044998;28;20044;-80
2021/03/02 02:35:00;;;;;;;44.47;17.83;;;;;;;-1.33;98.67;103582.75;5032526;28;20037;-80
2021/03/02 02:37:28;;;;;;;37.50;18.48;;;;;;;-1.35;98.70;103581.91;5028476;28;20033;-78
2021/03/02 02:39:58;;;;;;;37.67;18.42;;;;;;;-1.33;98.77;103585.31;5013140;28;20052;-78
2021/03/02 02:42:26;;;;;;;37.17;18.10;;;;;;;-1.32;99.05;103584.44;5066927;28;20025;-80
2021/03/02 02:44:53;;;;;;;64.30;19.10;;;;;;;-1.30;98.86;103575.00;5066340;28;20510;-80
2021/03/02 02:47:19;;;;;;;30.58;16.35;;;;;;;-1.38;99.09;103575.00;5036591;28;20136;-79
2021/03/02 02:49:47;;;;;;;42.45;18.70;;;;;;;-1.26;98.94;103584.44;5021003;28;20072;-81
2021/03/02 02:52:15;;;;;;;40.67;18.80;;;;;;;-1.31;98.94;103584.44;5053454;28;20048;-79
2021/03/02 02:54:42;;;;;;;87.85;20.55;;;;;;;-1.48;98.83;103561.28;5031397;28;20037;-80
2021/03/02 02:57:09;;;;;;;85.35;20.00;;;;;;;-1.41;98.64;103581.03;5036109;28;20112;-79
2021/03/02 02:59:54;;;;;;;55.92;20.92;;;;;;;-1.41;99.09;103586.19;5050746;28;20039;-79
2021/03/02 03:02:36;;;;;;;46.53;20.92;;;;;;;-1.40;99.04;103587.88;5033581;28;20041;-78
2021/03/02 03:05:14;;;;;;;47.42;21.50;;;;;;;-1.43;98.97;103587.00;5025505;28;20043;-77
2021/03/02 03:07:48;;;;;;;41.53;20.65;;;;;;;-1.39;99.12;103586.19;5033423;28;20403;-77
2021/03/02 03:10:14;;;;;;;39.00;19.40;;;;;;;-1.44;99.30;103583.59;5040158;28;20079;-78
2021/03/02 03:12:43;;;;;;;47.58;20.20;;;;;;;-1.45;99.24;103579.31;5025261;28;20037;-77
2021/03/02 03:15:10;;;;;;;51.80;22.58;;;;;;;-1.49;99.28;103576.72;5047094;28;20095;-78
2021/03/02 03:17:42;;;;;;;36.17;19.38;;;;;;;-1.43;99.12;103592.16;5048237;28;20033;-78
2021/03/02 03:20:10;;;;;;;45.42;21.38;;;;;;;-1.37;98.82;103589.63;5048664;28;20060;-76
2021/03/02 03:22:37;;;;;;;50.78;21.92;;;;;;;-1.41;99.18;103588.75;5048695;28;20040;-77
2021/03/02 03:25:05;;;;;;;51.63;21.85;;;;;;;-1.42;99.17;103586.16;5015761;28;20033;-78
2021/03/02 03:27:32;;;;;;;36.45;18.15;;;;;;;-1.53;99.12;103573.28;5048527;28;20040;-78
2021/03/02 03:30:00;;;;;;;44.33;19.60;;;;;;;-1.58;98.73;103587.88;5033885;28;20039;-79
2021/03/02 03:32:28;;;;;;;33.53;17.77;;;;;;;-1.58;98.97;103585.31;5066001;28;20032;-78
2021/03/02 03:34:54;;;;;;;35.83;19.55;;;;;;;-1.56;99.18;103586.16;5030823;28;20124;-79
2021/03/02 03:37:20;;;;;;;33.30;18.73;;;;;;;-1.49;99.40;103577.56;5045618;28;20068;-79
2021/03/02 03:39:46;;;;;;;35.60;19.40;;;;;;;-1.46;99.13;103584.44;5052773;28;20422;-79
2021/03/02 03:42:12;;;;;;;38.55;19.15;;;;;;;-1.46;99.14;103581.88;5052084;28;20384;-79
2021/03/02 03:44:37;;;;;;;35.22;18.75;;;;;;;-1.51;99.21;103574.13;5045949;28;20025;-80
2021/03/02 03:47:04;;;;;;;30.45;16.73;;;;;;;-1.60;99.06;103564.72;5036863;28;20037;-79
2021/03/02 03:49:29;;;;;;;40.78;18.42;;;;;;;-1.61;98.85;103570.69;5052479;28;20045;-80
2021/03/02 03:51:57;;;;;;;35.25;14.98;;;;;;;-1.71;98.54;103574.13;5053184;28;20036;-79
2021/03/02 03:54:24;;;;;;;53.25;17.90;;;;;;;-1.78;98.44;103586.13;5054208;28;20029;-79
2021/03/02 03:56:51;;;;;;;29.15;16.40;;;;;;;-1.80;98.46;103581.84;5052106;28;20052;-78
2021/03/02 03:59:19;;;;;;;28.48;14.07;;;;;;;-1.92;98.58;103574.06;5034090;28;20476;-79
2021/03/02 04:01:45;;;;;;;29.23;17.48;;;;;;;-1.82;98.71;103580.97;5051517;28;20043;-80
2021/03/02 04:04:10;;;;;;;26.77;16.52;;;;;;;-1.79;98.87;103584.41;5050955;28;20069;-77
2021/03/02 04:06:37;;;;;;;30.58;16.30;;;;;;;-1.68;98.99;103588.72;5033146;28;20136;-79
2021/03/02 04:09:04;;;;;;;27.83;13.40;;;;;;;-1.71;98.94;103579.28;5050404;28;20037;-78
2021/03/02 04:11:29;;;;;;;34.78;15.48;;;;;;;-1.78;99.07;103572.41;5068327;28;20051;-80
2021/03/02 04:13:55;;;;;;;37.13;15.10;;;;;;;-1.68;99.07;103583.56;5051583;28;20112;-76
2021/03/02 04:16:21;;;;;;;29.15;15.38;;;;;;;-1.67;99.40;103577.56;5014313;28;20120;-79
2021/03/02 04:18:47;;;;;;;27.08;13.63;;;;;;;-1.68;99.04;103570.69;5045640;28;20064;-78
2021/03/02 04:21:13;;;;;;;42.13;17.70;;;;;;;-1.61;99.12;103577.56;5030137;28;20029;-80
2021/03/02 04:23:40;;;;;;;36.28;16.88;;;;;;;-1.62;99.30;103578.41;5034585;28;20029;-79
2021/03/02 04:26:05;;;;;;;54.10;17.60;;;;;;;-1.70;99.24;103567.25;5048482;28;20040;-79
2021/03/02 04:28:31;;;;;;;31.10;16.58;;;;;;;-1.70;99.38;103582.72;5017238;28;20037;-78
2021/03/02 04:30:56;;;;;;;55.33;15.98;;;;;;;-1.65;99.42;103571.56;5025917;28;20449;-79
2021/03/02 04:33:22;;;;;;;65.03;18.27;;;;;;;-1.74;99.24;103581.00;5037113;28;20041;-78
2021/03/02 04:35:56;;;;;;;34.50;15.73;;;;;;;-1.81;98.92;103574.97;5028443;28;20033;-79
2021/03/02 04:38:21;;;;;;;44.33;17.52;;;;;;;-1.85;98.91;103568.09;5051925;28;20052;-82
2021/03/02 04:40:47;;;;;;;59.22;18.10;;;;;;;-1.92;98.96;103561.22;5033662;28;20033;-80
2021/03/02 04:43:12;;;;;;;35.33;17.23;;;;;;;-1.86;99.02;103571.53;5034924;28;20107;-81
2021/03/02 04:45:38;;;;;;;33.80;15.48;;;;;;;-1.91;98.95;103555.22;5046571;28;20056;-80
2021/03/02 04:48:04;;;;;;;32.15;15.90;;;;;;;-1.83;98.66;103569.84;5039503;28;20033;-79
2021/03/02 04:50:29;;;;;;;33.58;16.73;;;;;;;-1.87;99.13;103562.09;5033548;28;20111;-79
2021/03/02 04:52:55;;;;;;;31.27;17.25;;;;;;;-1.85;99.04;103565.53;5034076;28;20075;-79
2021/03/02 04:55:20;;;;;;;29.38;17.10;;;;;;;-1.86;99.16;103563.81;5034237;28;20127;-80
2021/03/02 04:57:45;;;;;;;31.73;17.55;;;;;;;-1.86;98.93;103561.25;5051855;28;20483;-79
2021/03/02 05:00:12;;;;;;;34.22;18.48;;;;;;;-1.82;99.06;103570.69;5050720;28;20033;-78
2021/03/02 05:02:37;;;;;;;45.78;18.25;;;;;;;-1.82;98.92;103562.97;5048519;28;20037;-79
2021/03/02 05:05:04;;;;;;;113.95;19.95;;;;;;;-1.90;99.28;103569.78;5067952;28;20055;-79
2021/03/02 05:07:30;;;;;;;47.00;17.80;;;;;;;-1.92;99.18;103564.66;5014602;28;20044;-81
2021/03/02 05:09:55;;;;;;;39.53;17.23;;;;;;;-1.83;99.22;103571.53;5039191;28;20111;-77
2021/03/02 05:12:21;;;;;;;31.38;14.95;;;;;;;-1.88;98.94;103576.69;5047814;28;20494;-80
2021/03/02 05:14:46;;;;;;;31.33;15.80;;;;;;;-1.90;99.08;103573.25;5033939;28;20355;-78
2021/03/02 05:17:12;;;;;;;39.70;14.95;;;;;;;-1.94;98.64;103570.66;5043395;28;20029;-78
2021/03/02 05:19:37;;;;;;;36.15;13.68;;;;;;;-1.96;98.73;103575.78;5043698;28;20427;-78
2021/03/02 05:22:03;;;;;;;32.63;13.60;;;;;;;-2.00;98.59;103568.91;5030797;28;20033;-78
2021/03/02 05:24:29;;;;;;;30.48;13.70;;;;;;;-2.06;98.11;103581.75;5048344;28;20514;-78
2021/03/02 05:26:54;;;;;;;25.85;14.77;;;;;;;-2.05;98.61;103574.06;5034088;28;20041;-78
2021/03/02 05:29:20;;;;;;;28.83;14.18;;;;;;;-2.09;98.72;103587.78;5046895;28;20057;-81
2021/03/02 05:31:45;;;;;;;33.78;13.05;;;;;;;-2.19;98.63;103568.00;5046787;28;20067;-78
2021/03/02 05:34:12;;;;;;;31.45;12.63;;;;;;;-2.16;98.06;103581.72;5041901;28;20051;-79
2021/03/02 05:36:37;;;;;;;43.67;12.63;;;;;;;-2.23;98.43;103564.56;5016964;28;20403;-78
2021/03/02 05:39:03;;;;;;;22.27;11.02;;;;;;;-2.28;97.79;103579.13;5049241;28;20064;-78
2021/03/02 05:41:29;;;;;;;53.25;11.38;;;;;;;-2.33;97.66;103572.25;5049393;28;20143;-77
2021/03/02 05:43:55;;;;;;;28.55;11.63;;;;;;;-2.45;97.64;103573.03;5050689;28;20049;-79
2021/03/02 05:46:25;;;;;;;20.45;11.75;;;;;;;-2.48;97.59;103576.47;5066727;28;20037;-79
2021/03/02 05:48:50;;;;;;;25.00;11.45;;;;;;;-2.44;97.81;103579.91;5066447;28;20874;-78
2021/03/02 05:51:19;;;;;;;31.70;11.85;;;;;;;-2.44;97.82;103580.75;5049285;28;20115;-79
2021/03/02 05:53:45;;;;;;;25.02;12.60;;;;;;;-2.46;97.65;103584.19;5023134;28;20041;-79
2021/03/02 05:56:12;;;;;;;33.83;12.32;;;;;;;-2.54;97.46;103581.59;5048430;28;20036;-79
2021/03/02 05:58:38;;;;;;;46.90;13.45;;;;;;;-2.55;97.23;103585.00;5036389;28;20120;-81
2021/03/02 06:01:04;;;;;;;31.77;11.35;;;;;;;-2.60;97.42;103589.25;5049366;28;20144;-80
2021/03/02 06:03:33;;;;;;;23.67;11.65;;;;;;;-2.73;97.22;103583.19;5044299;28;20040;-79
2021/03/02 06:05:58;;;;;;;23.50;12.57;;;;;;;-2.72;97.83;103578.91;5048564;28;20083;-79
2021/03/02 06:08:24;;;;;;;27.90;12.98;;;;;;;-2.61;97.95;103587.53;5062070;28;20069;-79
2021/03/02 06:10:49;;;;;;;20.88;12.82;;;;;;;-2.60;97.84;103586.66;5014401;28;20032;-80
2021/03/02 06:13:24;;;;;;;67.45;13.63;;;;;;;-2.61;97.88;103588.38;5050265;28;20100;-79
2021/03/02 06:15:55;;;;;;;52.92;13.90;;;;;;;-2.68;97.53;103584.06;5049618;28;20032;-79
2021/03/02 06:18:22;;;;;;;30.45;11.90;;;;;;;-2.73;97.78;103588.34;5033003;28;20037;-79
2021/03/02 06:20:48;;;;;;;21.65;12.30;;;;;;;-2.74;97.82;103582.31;5029053;28;20056;-79
2021/03/02 06:23:24;;;;;;;29.13;12.70;;;;;;;-2.60;98.26;103587.56;5022849;28;20034;-79
2021/03/02 06:25:50;;;;;;;26.50;13.68;;;;;;;-2.73;97.80;103583.19;5033526;28;20037;-78
2021/03/02 06:28:41;;;;;;;28.02;12.52;;;;;;;-2.66;97.92;103584.91;5048343;28;20045;-80
2021/03/02 06:31:07;;;;;;;21.55;12.30;;;;;;;-2.68;97.81;103578.91;5030880;28;20060;-78
2021/03/02 06:33:33;;;;;;;29.48;12.68;;;;;;;-2.63;97.81;103587.53;5060870;28;20159;-79
2021/03/02 06:35:59;;;;;;;47.33;13.85;;;;;;;-2.68;97.64;103588.34;5040822;28;20029;-79
2021/03/02 06:38:29;;;;;;;33.38;14.07;;;;;;;-2.65;97.37;103591.78;5032160;28;20505;-78
2021/03/02 06:40:55;;;;;;;23.73;13.13;;;;;;;-2.74;97.10;103586.59;5029555;28;20041;-78
2021/03/02 06:43:38;;;;;;;23.45;12.95;;;;;;;-2.75;97.70;103583.19;5065703;28;20414;-81
2021/03/02 06:46:05;;;;;;;36.95;14.98;;;;;;;-2.69;98.07;103594.31;5043594;28;20037;-77
2021/03/02 06:48:32;;;;;;;40.88;16.88;;;;;;;-2.72;97.78;103594.31;5048790;28;20410;-80
2021/03/02 06:50:59;;;;;;;38.55;16.10;;;;;;;-2.71;98.10;103580.59;5014747;28;20032;-80
2021/03/02 06:53:25;;;;;;;43.72;18.20;;;;;;;-2.67;97.98;103593.50;5055149;28;20821;-79
2021/03/02 06:55:50;;;;;;;44.08;18.48;;;;;;;-2.65;98.06;103585.81;5048068;28;20112;-78
2021/03/02 06:58:24;;;;;;;54.35;21.05;;;;;;;-2.60;97.78;103591.81;5042555;28;20056;-79
2021/03/02 07:00:55;;;;;;;75.65;22.38;;;;;;;-2.57;97.66;103596.97;5061978;28;20112;-79
2021/03/02 07:03:32;;;;;;;47.17;22.52;;;;;;;-2.59;97.66;103602.09;5005655;28;20049;-79
2021/03/02 07:06:08;;;;;;;51.50;22.77;;;;;;;-2.59;97.79;103598.69;5024791;28;20083;-79
2021/03/02 07:08:36;;;;;;;55.92;21.35;;;;;;;-2.59;97.89;103602.09;5027789;28;20035;-79
2021/03/02 07:11:03;;;;;;;54.22;21.88;;;;;;;-2.58;97.38;103600.38;5058029;28;20475;-79
2021/03/02 07:13:41;;;;;;;101.18;20.48;;;;;;;-2.62;97.11;103598.66;5058649;28;20048;-79
2021/03/02 07:16:07;;;;;;;45.75;21.58;;;;;;;-2.57;97.44;103590.13;5032473;28;20033;-79
2021/03/02 07:18:33;;;;;;;60.22;21.40;;;;;;;-2.51;97.53;103593.56;5048154;28;20099;-81
2021/03/02 07:21:03;;;;;;;42.30;19.83;;;;;;;-2.46;97.54;103597.88;5033291;28;20074;-79
2021/03/02 07:23:33;;;;;;;52.60;20.85;;;;;;;-2.49;97.40;103592.72;5032022;28;20033;-78
2021/03/02 07:26:01;;;;;;;46.85;20.50;;;;;;;-2.48;97.09;103596.19;5049131;28;20550;-79
2021/03/02 07:28:33;;;;;;;53.30;19.63;;;;;;;-2.49;96.88;103597.88;5027381;28;20089;-78
2021/03/02 07:30:58;;;;;;;53.90;22.55;;;;;;;-2.48;97.11;103594.47;5040238;28;20034;-80
2021/03/02 07:33:24;;;;;;;46.20;21.15;;;;;;;-2.41;96.73;103608.19;5037284;28;20051;-80
2021/03/02 07:35:55;;;;;;;62.38;23.50;;;;;;;-2.34;96.82;103604.78;5041784;28;20394;-79
2021/03/02 07:38:22;;;;;;;63.05;23.23;;;;;;;-2.38;96.93;103609.06;5013736;28;20499;-81
2021/03/02 07:40:53;;;;;;;71.85;21.75;;;;;;;-2.37;96.47;103604.81;5044716;28;20037;-78
2021/03/02 07:43:36;;;;;;;73.90;22.15;;;;;;;-2.27;96.67;103603.97;5028403;28;20403;-80
2021/03/02 07:46:31;;;;;;;51.88;23.25;;;;;;;-2.26;96.68;103600.56;5043862;28;20072;-79
2021/03/02 07:48:56;;;;;;;61.72;22.77;;;;;;;-2.23;96.48;103604.84;5047239;28;20053;-79
2021/03/02 07:51:23;;;;;;;64.60;23.95;;;;;;;-2.15;96.99;103608.31;5031197;28;20825;-78
2021/03/02 07:53:50;;;;;;;61.45;21.65;;;;;;;-2.24;96.59;103603.13;5044887;28;20567;-77
2021/03/02 07:56:24;;;;;;;53.10;18.95;;;;;;;-2.24;96.86;103610.84;5026071;28;20632;-78
2021/03/02 07:59:05;;;;;;;58.03;20.95;;;;;;;-2.10;97.09;103619.47;5054937;28;20075;-80
2021/03/02 08:01:32;;;;;;;56.70;22.83;;;;;;;-2.05;96.69;103619.50;5041522;28;20033;-77
2021/03/02 08:04:15;;;;;;;52.67;22.67;;;;;;;-2.02;96.70;103619.50;5043118;28;20029;-78
2021/03/02 08:06:50;;;;;;;67.13;23.38;;;;;;;-1.99;96.44;103614.38;5040323;28;20037;-77
2021/03/02 08:09:21;;;;;;;58.17;22.25;;;;;;;-1.93;96.55;103623.81;5023214;28;20422;-77
2021/03/02 08:11:48;;;;;;;79.97;24.42;;;;;;;-1.91;96.48;103624.69;5056092;28;20048;-77
2021/03/02 08:14:16;;;;;;;76.53;25.23;;;;;;;-1.89;96.40;103626.41;5031524;28;20040;-79
2021/03/02 08:17:00;;;;;;;89.22;24.17;;;;;;;-1.84;96.09;103636.72;5060781;28;20121;-78
2021/03/02 08:19:37;;;;;;;71.38;23.88;;;;;;;-1.85;95.93;103635.00;5055295;28;20158;-80
2021/03/02 08:22:23;;;;;;;64.68;24.40;;;;;;;-1.80;96.29;103628.16;5055017;28;20328;-80
2021/03/02 08:25:03;;;;;;;73.25;22.13;;;;;;;-1.66;96.08;103631.59;5059398;28;20140;-80
2021/03/02 08:27:49;;;;;;;41.38;18.40;;;;;;;-1.62;95.81;103629.91;5040872;28;20028;-81
2021/03/02 08:30:21;;;;;;;58.92;19.20;;;;;;;-1.49;95.99;103635.94;5054894;28;20041;-80
2021/03/02 08:32:47;;;;;;;51.72;19.98;;;;;;;-1.39;95.51;103637.69;5057584;28;20025;-81
2021/03/02 08:35:23;;;;;;;50.83;21.27;;;;;;;-1.41;95.50;103637.69;5056495;28;20079;-81
2021/03/02 08:37:55;;;;;;;77.00;19.75;;;;;;;-1.31;95.13;103627.38;5050864;28;20044;-81
2021/03/02 08:40:32;;;;;;;40.75;20.30;;;;;;;-1.30;95.24;103639.38;5053694;28;20595;-80
2021/03/02 08:43:09;;;;;;;50.58;19.45;;;;;;;-1.25;95.57;103635.97;5047791;28;20056;-79
2021/03/02 08:45:41;;;;;;;93.05;20.15;;;;;;;-1.16;95.80;103631.69;5064780;28;20052;-79
2021/03/02 08:48:11;;;;;;;58.15;19.40;;;;;;;-1.09;95.35;103630.81;5053177;28;20029;-79
2021/03/02 08:50:36;;;;;;;62.90;18.35;;;;;;;-1.05;95.26;103622.25;5052361;28;20072;-80
2021/03/02 08:53:02;;;;;;;37.17;17.40;;;;;;;-0.85;95.68;103629.94;5052537;28;20063;-79
2021/03/02 08:55:37;;;;;;;136.80;19.08;;;;;;;-0.80;95.41;103626.50;5017934;28;20045;-79
2021/03/02 08:58:03;;;;;;;31.60;15.30;;;;;;;-0.73;94.87;103623.94;5015473;28;20120;-81
2021/03/02 09:00:29;;;;;;;37.38;15.38;;;;;;;-0.57;94.87;103629.91;5042131;28;20091;-81
2021/03/02 09:02:55;;;;;;;26.20;13.90;;;;;;;-0.61;93.57;103636.78;5023753;28;20041;-80
2021/03/02 09:05:20;;;;;;;36.83;14.90;;;;;;;-0.53;93.60;103627.28;5039991;28;20041;-79
2021/03/02 09:08:04;;;;;;;37.08;14.73;;;;;;;-0.46;93.23;103635.88;5066611;28;20506;-79
2021/03/02 09:10:30;;;;;;;33.92;14.43;;;;;;;-0.39;94.10;103637.59;5066051;28;20072;-80
2021/03/02 09:12:55;;;;;;;33.22;14.10;;;;;;;-0.50;92.96;103637.59;5049018;28;20091;-81
2021/03/02 09:15:36;;;;;;;27.73;14.00;;;;;;;-0.41;93.85;103639.31;5039327;28;20849;-80
2021/03/02 09:18:31;;;;;;;88.63;16.25;;;;;;;-0.37;94.46;103635.00;5066792;28;20110;-79
2021/03/02 09:20:56;;;;;;;34.65;14.95;;;;;;;-0.27;94.32;103639.25;5062291;28;20052;-79
2021/03/02 09:23:24;;;;;;;30.42;15.75;;;;;;;-0.18;93.46;103641.81;5048439;28;20064;-79
2021/03/02 09:25:51;;;;;;;28.50;15.13;;;;;;;-0.21;93.39;103645.28;5030729;28;20055;-79
2021/03/02 09:28:20;;;;;;;49.25;16.40;;;;;;;-0.16;92.97;103640.09;5033336;28;20037;-80
2021/03/02 09:30:46;;;;;;;56.20;16.83;;;;;;;-0.08;92.90;103638.31;5048519;28;20402;-79
2021/03/02 09:33:13;;;;;;;32.28;16.17;;;;;;;-0.10;92.94;103641.78;5050437;28;20116;-79
2021/03/02 09:35:39;;;;;;;30.08;14.80;;;;;;;-0.17;93.04;103634.91;5051218;28;20025;-80
2021/03/02 09:38:04;;;;;;;49.03;18.05;;;;;;;-0.12;93.95;103635.78;5051040;28;20376;-78
2021/03/02 09:40:42;;;;;;;32.75;18.10;;;;;;;0.06;93.98;103643.44;5016937;28;20040;-80
2021/03/02 09:43:08;;;;;;;109.15;18.38;;;;;;;0.24;94.55;103639.03;5051487;28;20032;-80
2021/03/02 09:45:34;;;;;;;138.43;19.83;;;;;;;0.31;93.98;103631.25;5031237;28;20128;-79
2021/03/02 09:48:05;;;;;;;33.80;16.75;;;;;;;0.51;93.11;103638.00;5039497;28;20071;-79
2021/03/02 09:50:35;;;;;;;32.88;16.23;;;;;;;0.55;92.21;103640.56;5049284;28;20068;-79
2021/03/02 09:53:11;;;;;;;42.35;17.45;;;;;;;0.56;92.71;103631.94;5046373;28;20036;-80
2021/03/02 09:55:36;;;;;;;41.88;16.70;;;;;;;0.60;92.69;103632.78;5024967;28;20405;-80
2021/03/02 09:58:14;;;;;;;35.95;15.82;;;;;;;0.60;92.08;103631.91;5026544;28;20044;-79
2021/03/02 10:00:46;;;;;;;56.53;16.88;;;;;;;0.64;93.17;103631.91;5038130;28;20120;-79
2021/03/02 10:03:17;;;;;;;29.50;15.88;;;;;;;0.86;92.35;103624.81;5051089;28;20040;-79
2021/03/02 10:05:56;;;;;;;42.83;16.48;;;;;;;1.00;93.35;103623.84;5046523;28;20495;-79
2021/03/02 10:08:24;;;;;;;90.50;17.05;;;;;;;1.01;93.28;103617.81;5011683;28;20037;-77
2021/03/02 10:10:51;;;;;;;79.55;17.10;;;;;;;1.09;92.82;103611.72;5048241;28;20028;-80
2021/03/02 10:13:28;;;;;;;37.25;17.63;;;;;;;1.25;91.78;103612.41;5015767;28;20040;-80
2021/03/02 10:16:12;;;;;;;44.55;17.77;;;;;;;1.35;92.73;103615.75;5061544;28;20064;-79
2021/03/02 10:18:46;;;;;;;42.42;19.42;;;;;;;1.41;92.24;103618.25;5031424;28;20037;-79
2021/03/02 10:21:11;;;;;;;79.30;18.83;;;;;;;1.49;92.44;103613.03;5032324;28;20033;-79
2021/03/02 10:23:48;;;;;;;37.13;18.23;;;;;;;1.63;93.30;103618.03;5041529;28;20033;-78
2021/03/02 10:26:20;;;;;;;37.97;18.52;;;;;;;1.83;91.41;103617.78;5049395;28;20036;-79
2021/03/02 10:28:46;;;;;;;32.00;16.77;;;;;;;1.67;91.27;103612.78;5047883;28;20654;-78
2021/03/02 10:31:11;;;;;;;30.55;15.65;;;;;;;1.56;91.00;103614.66;5029515;28;20284;-78
2021/03/02 10:33:36;;;;;;;40.50;16.38;;;;;;;1.58;91.47;103618.06;5049574;28;20090;-79
2021/03/02 10:36:02;;;;;;;28.13;16.08;;;;;;;1.57;92.16;103615.53;5065330;28;20029;-78
2021/03/02 10:38:27;;;;;;;35.60;16.48;;;;;;;1.70;92.26;103620.53;5048536;28;20041;-77
2021/03/02 10:40:53;;;;;;;33.65;16.70;;;;;;;1.81;91.91;103614.34;5031793;28;20134;-78
2021/03/02 10:43:18;;;;;;;36.40;17.48;;;;;;;1.94;92.51;103621.97;5043793;28;20033;-77
2021/03/02 10:45:44;;;;;;;34.67;18.23;;;;;;;2.05;92.49;103618.38;5045476;28;20707;-78
2021/03/02 10:48:10;;;;;;;43.17;18.88;;;;;;;2.18;92.01;103619.91;5047304;28;20043;-79
2021/03/02 10:50:35;;;;;;;36.95;18.63;;;;;;;2.27;91.51;103626.69;5040607;28;20040;-78
2021/03/02 10:53:01;;;;;;;35.60;17.17;;;;;;;2.19;90.97;103626.81;5032188;28;20403;-77
2021/03/02 10:55:27;;;;;;;36.90;18.50;;;;;;;2.15;91.86;103627.75;5044651;28;20108;-78
2021/03/02 10:57:52;;;;;;;35.28;17.77;;;;;;;2.30;92.32;103631.84;5043595;28;20021;-79
2021/03/02 11:00:18;;;;;;;37.28;18.73;;;;;;;2.49;92.02;103627.25;5042686;28;20033;-80
2021/03/02 11:02:44;;;;;;;34.38;18.45;;;;;;;2.75;91.46;103621.66;5027487;28;20033;-81
2021/03/02 11:05:10;;;;;;;34.72;18.40;;;;;;;2.94;90.85;103624.78;5037909;28;20037;-80
2021/03/02 11:07:56;;;;;;;38.95;19.52;;;;;;;2.96;89.71;103619.56;5040297;28;20029;-79
2021/03/02 11:10:21;;;;;;;37.13;18.88;;;;;;;2.82;90.16;103617.22;5041467;28;20129;-79
2021/03/02 11:12:47;;;;;;;43.13;19.23;;;;;;;2.84;90.58;103610.25;5044929;28;20040;-77
2021/03/02 11:15:13;;;;;;;34.58;18.33;;;;;;;2.80;90.16;103608.59;5047808;28;20049;-79
2021/03/02 11:17:39;;;;;;;36.03;18.58;;;;;;;2.97;90.20;103606.56;5042962;28;20057;-79